Terminal Aerodrome Forecast
Issued by NWS Rapid City, SD

Home | Current Version | Previous Version | Graphics & Text | Print | Product List | Glossary On
Versions: 1 2 3 4 5 6 7 8 9 10 11 12 13 14 15
000
FTUS43 KUNR 202332
TAFRAP
TAF
KRAP 202332Z 2100/2124 04008KT P6SM BKN200
     FM210900 11005KT 2SM BR OVC007
     FM211500 13010KT P6SM BKN015
     FM211800 14015KT P6SM VCSH BKN035=

USA.gov is the U.S. government's official web portal to all federal, state and local government web resources and services.